sensor_id;sensor_type;location;lat;lon;timestamp;temperature;humidity
8892;DHT22;4482;54.332;10.118;2023-03-21T00:01:09;7.80;99.90
8892;DHT22;4482;54.332;10.118;2023-03-21T00:03:37;7.80;99.90
8892;DHT22;4482;54.332;10.118;2023-03-21T00:06:04;7.80;99.90
8892;DHT22;4482;54.332;10.118;2023-03-21T00:08:31;7.90;99.90
8892;DHT22;4482;54.332;10.118;2023-03-21T00:10:58;7.80;99.90
8892;DHT22;4482;54.332;10.118;2023-03-21T00:13:26;7.80;99.90
8892;DHT22;4482;54.332;10.118;2023-03-21T00:15:56;7.80;99.90
8892;DHT22;4482;54.332;10.118;2023-03-21T00:18:23;7.80;99.90
8892;DHT22;4482;54.332;10.118;2023-03-21T00:20:59;7.80;99.90
8892;DHT22;4482;54.332;10.118;2023-03-21T00:23:27;7.80;99.90
8892;DHT22;4482;54.332;10.118;2023-03-21T00:25:54;7.80;99.90
8892;DHT22;4482;54.332;10.118;2023-03-21T00:28:20;7.80;99.90
8892;DHT22;4482;54.332;10.118;2023-03-21T00:30:48;7.80;99.90
8892;DHT22;4482;54.332;10.118;2023-03-21T00:33:15;7.80;99.90
8892;DHT22;4482;54.332;10.118;2023-03-21T00:35:45;7.80;99.90
8892;DHT22;4482;54.332;10.118;2023-03-21T00:38:13;7.80;99.90
8892;DHT22;4482;54.332;10.118;2023-03-21T00:40:39;7.80;99.90
8892;DHT22;4482;54.332;10.118;2023-03-21T00:43:06;7.80;99.90
8892;DHT22;4482;54.332;10.118;2023-03-21T00:45:33;7.80;99.90
8892;DHT22;4482;54.332;10.118;2023-03-21T00:48:01;7.80;99.90
8892;DHT22;4482;54.332;10.118;2023-03-21T00:50:27;7.80;99.90
8892;DHT22;4482;54.332;10.118;2023-03-21T00:52:54;7.80;99.90
8892;DHT22;4482;54.332;10.118;2023-03-21T00:55:20;7.80;99.90
8892;DHT22;4482;54.332;10.118;2023-03-21T00:57:47;7.80;99.90
8892;DHT22;4482;54.332;10.118;2023-03-21T01:00:14;7.80;99.90
8892;DHT22;4482;54.332;10.118;2023-03-21T01:02:43;7.80;99.90
8892;DHT22;4482;54.332;10.118;2023-03-21T01:05:22;7.80;99.90
8892;DHT22;4482;54.332;10.118;2023-03-21T01:08:09;7.80;99.90
8892;DHT22;4482;54.332;10.118;2023-03-21T01:10:37;7.80;99.90
8892;DHT22;4482;54.332;10.118;2023-03-21T01:13:04;7.80;99.90
8892;DHT22;4482;54.332;10.118;2023-03-21T01:15:31;7.80;99.90
8892;DHT22;4482;54.332;10.118;2023-03-21T01:17:57;7.80;99.90
8892;DHT22;4482;54.332;10.118;2023-03-21T01:20:25;7.80;99.90
8892;DHT22;4482;54.332;10.118;2023-03-21T01:22:52;7.80;99.90
8892;DHT22;4482;54.332;10.118;2023-03-21T01:25:19;7.80;99.90
8892;DHT22;4482;54.332;10.118;2023-03-21T01:27:46;7.90;99.90
8892;DHT22;4482;54.332;10.118;2023-03-21T01:30:12;7.80;99.90
8892;DHT22;4482;54.332;10.118;2023-03-21T01:32:39;7.80;99.90
8892;DHT22;4482;54.332;10.118;2023-03-21T01:35:06;7.80;99.90
8892;DHT22;4482;54.332;10.118;2023-03-21T01:37:34;7.80;99.90
8892;DHT22;4482;54.332;10.118;2023-03-21T01:40:01;7.80;99.90
8892;DHT22;4482;54.332;10.118;2023-03-21T01:42:29;7.80;99.90
8892;DHT22;4482;54.332;10.118;2023-03-21T01:44:57;7.80;99.90
8892;DHT22;4482;54.332;10.118;2023-03-21T01:47:24;7.80;99.90
8892;DHT22;4482;54.332;10.118;2023-03-21T01:49:51;7.80;99.90
8892;DHT22;4482;54.332;10.118;2023-03-21T01:52:21;7.80;99.90
8892;DHT22;4482;54.332;10.118;2023-03-21T01:54:51;7.80;99.90
8892;DHT22;4482;54.332;10.118;2023-03-21T01:57:21;7.80;99.90
8892;DHT22;4482;54.332;10.118;2023-03-21T01:59:49;7.80;99.90
8892;DHT22;4482;54.332;10.118;2023-03-21T02:02:18;7.80;99.90
8892;DHT22;4482;54.332;10.118;2023-03-21T02:04:47;7.80;99.90
8892;DHT22;4482;54.332;10.118;2023-03-21T02:07:16;7.80;99.90
8892;DHT22;4482;54.332;10.118;2023-03-21T02:09:45;7.80;99.90
8892;DHT22;4482;54.332;10.118;2023-03-21T02:12:13;7.80;99.90
8892;DHT22;4482;54.332;10.118;2023-03-21T02:14:42;7.80;99.90
8892;DHT22;4482;54.332;10.118;2023-03-21T02:17:12;7.80;99.90
8892;DHT22;4482;54.332;10.118;2023-03-21T02:22:33;7.80;99.90
8892;DHT22;4482;54.332;10.118;2023-03-21T02:25:10;7.80;99.90
8892;DHT22;4482;54.332;10.118;2023-03-21T02:27:43;7.90;99.90
8892;DHT22;4482;54.332;10.118;2023-03-21T02:30:23;7.80;99.90
8892;DHT22;4482;54.332;10.118;2023-03-21T02:32:56;7.80;99.90
8892;DHT22;4482;54.332;10.118;2023-03-21T02:35:27;7.80;99.90
8892;DHT22;4482;54.332;10.118;2023-03-21T02:38:00;7.80;99.90
8892;DHT22;4482;54.332;10.118;2023-03-21T02:40:29;7.80;99.90
8892;DHT22;4482;54.332;10.118;2023-03-21T02:42:59;7.80;99.90
8892;DHT22;4482;54.332;10.118;2023-03-21T02:45:31;7.80;99.90
8892;DHT22;4482;54.332;10.118;2023-03-21T02:48:00;7.80;99.90
8892;DHT22;4482;54.332;10.118;2023-03-21T02:50:30;7.80;99.90
8892;DHT22;4482;54.332;10.118;2023-03-21T02:52:59;7.80;99.90
8892;DHT22;4482;54.332;10.118;2023-03-21T02:55:28;7.80;99.90
8892;DHT22;4482;54.332;10.118;2023-03-21T02:57:57;7.90;99.90
8892;DHT22;4482;54.332;10.118;2023-03-21T03:00:25;7.80;99.90
8892;DHT22;4482;54.332;10.118;2023-03-21T03:02:52;7.90;99.90
8892;DHT22;4482;54.332;10.118;2023-03-21T03:05:20;7.80;99.90
8892;DHT22;4482;54.332;10.118;2023-03-21T03:07:52;7.80;99.90
8892;DHT22;4482;54.332;10.118;2023-03-21T03:10:28;7.80;99.90
8892;DHT22;4482;54.332;10.118;2023-03-21T03:13:02;7.80;99.90
8892;DHT22;4482;54.332;10.118;2023-03-21T03:15:33;7.80;99.90
8892;DHT22;4482;54.332;10.118;2023-03-21T03:18:05;7.80;99.90
8892;DHT22;4482;54.332;10.118;2023-03-21T03:20:37;7.80;99.90
8892;DHT22;4482;54.332;10.118;2023-03-21T03:23:12;7.90;99.90
8892;DHT22;4482;54.332;10.118;2023-03-21T03:25:46;7.90;99.90
8892;DHT22;4482;54.332;10.118;2023-03-21T03:28:15;7.90;99.90
8892;DHT22;4482;54.332;10.118;2023-03-21T03:30:44;7.90;99.90
8892;DHT22;4482;54.332;10.118;2023-03-21T03:33:12;7.90;99.90
8892;DHT22;4482;54.332;10.118;2023-03-21T03:35:41;7.90;99.90
8892;DHT22;4482;54.332;10.118;2023-03-21T03:38:08;7.80;99.90
8892;DHT22;4482;54.332;10.118;2023-03-21T03:40:38;7.90;99.90
8892;DHT22;4482;54.332;10.118;2023-03-21T03:43:07;7.90;99.90
8892;DHT22;4482;54.332;10.118;2023-03-21T03:45:36;7.90;99.90
8892;DHT22;4482;54.332;10.118;2023-03-21T03:48:06;7.80;99.90
8892;DHT22;4482;54.332;10.118;2023-03-21T03:50:35;7.90;99.90
8892;DHT22;4482;54.332;10.118;2023-03-21T03:53:04;7.90;99.90
8892;DHT22;4482;54.332;10.118;2023-03-21T03:55:32;7.90;99.90
8892;DHT22;4482;54.332;10.118;2023-03-21T03:58:01;7.90;99.90
8892;DHT22;4482;54.332;10.118;2023-03-21T04:00:32;7.90;99.90
8892;DHT22;4482;54.332;10.118;2023-03-21T04:02:59;7.90;99.90
8892;DHT22;4482;54.332;10.118;2023-03-21T04:05:26;7.90;99.90
8892;DHT22;4482;54.332;10.118;2023-03-21T04:07:52;7.90;99.90
8892;DHT22;4482;54.332;10.118;2023-03-21T04:10:19;7.90;99.90
8892;DHT22;4482;54.332;10.118;2023-03-21T04:12:47;7.90;99.90
8892;DHT22;4482;54.332;10.118;2023-03-21T04:15:13;7.90;99.90
8892;DHT22;4482;54.332;10.118;2023-03-21T04:17:41;7.90;99.90
8892;DHT22;4482;54.332;10.118;2023-03-21T04:20:10;7.90;99.90
8892;DHT22;4482;54.332;10.118;2023-03-21T04:22:36;7.90;99.90
8892;DHT22;4482;54.332;10.118;2023-03-21T04:25:03;7.90;99.90
8892;DHT22;4482;54.332;10.118;2023-03-21T04:27:33;8.00;99.90
8892;DHT22;4482;54.332;10.118;2023-03-21T04:30:00;7.90;99.90
8892;DHT22;4482;54.332;10.118;2023-03-21T04:32:27;8.00;99.90
8892;DHT22;4482;54.332;10.118;2023-03-21T04:34:55;8.00;99.90
8892;DHT22;4482;54.332;10.118;2023-03-21T04:37:21;8.00;99.90
8892;DHT22;4482;54.332;10.118;2023-03-21T04:39:49;8.00;99.90
8892;DHT22;4482;54.332;10.118;2023-03-21T04:42:16;8.00;99.90
8892;DHT22;4482;54.332;10.118;2023-03-21T04:44:43;8.00;99.90
8892;DHT22;4482;54.332;10.118;2023-03-21T04:47:10;8.10;99.90
8892;DHT22;4482;54.332;10.118;2023-03-21T04:49:37;8.00;99.90
8892;DHT22;4482;54.332;10.118;2023-03-21T04:52:05;8.00;99.90
8892;DHT22;4482;54.332;10.118;2023-03-21T04:54:32;8.00;99.90
8892;DHT22;4482;54.332;10.118;2023-03-21T04:56:58;8.00;99.90
8892;DHT22;4482;54.332;10.118;2023-03-21T04:59:26;8.00;99.90
8892;DHT22;4482;54.332;10.118;2023-03-21T05:01:52;8.10;99.90
8892;DHT22;4482;54.332;10.118;2023-03-21T05:04:21;8.10;99.90
8892;DHT22;4482;54.332;10.118;2023-03-21T05:06:47;8.00;99.90
8892;DHT22;4482;54.332;10.118;2023-03-21T05:09:15;8.00;99.90
8892;DHT22;4482;54.332;10.118;2023-03-21T05:11:42;8.10;99.90
8892;DHT22;4482;54.332;10.118;2023-03-21T05:14:09;8.10;99.90
8892;DHT22;4482;54.332;10.118;2023-03-21T05:16:37;8.00;99.90
8892;DHT22;4482;54.332;10.118;2023-03-21T05:19:12;8.10;99.90
8892;DHT22;4482;54.332;10.118;2023-03-21T05:21:39;8.10;99.90
8892;DHT22;4482;54.332;10.118;2023-03-21T05:24:06;8.10;99.90
8892;DHT22;4482;54.332;10.118;2023-03-21T05:26:37;8.10;99.90
8892;DHT22;4482;54.332;10.118;2023-03-21T05:29:04;8.10;99.90
8892;DHT22;4482;54.332;10.118;2023-03-21T05:31:31;8.10;99.90
8892;DHT22;4482;54.332;10.118;2023-03-21T05:33:58;8.10;99.90
8892;DHT22;4482;54.332;10.118;2023-03-21T05:36:25;8.10;99.90
8892;DHT22;4482;54.332;10.118;2023-03-21T05:38:51;8.10;99.90
8892;DHT22;4482;54.332;10.118;2023-03-21T05:41:18;8.10;99.90
8892;DHT22;4482;54.332;10.118;2023-03-21T05:43:47;8.20;99.90
8892;DHT22;4482;54.332;10.118;2023-03-21T05:46:13;8.10;99.90
8892;DHT22;4482;54.332;10.118;2023-03-21T05:48:40;8.20;99.90
8892;DHT22;4482;54.332;10.118;2023-03-21T05:51:06;8.20;99.90
8892;DHT22;4482;54.332;10.118;2023-03-21T05:53:33;8.20;99.90
8892;DHT22;4482;54.332;10.118;2023-03-21T05:56:00;8.20;99.90
8892;DHT22;4482;54.332;10.118;2023-03-21T05:58:26;8.30;99.90
8892;DHT22;4482;54.332;10.118;2023-03-21T06:00:54;8.30;99.90
8892;DHT22;4482;54.332;10.118;2023-03-21T06:03:21;8.20;99.90
8892;DHT22;4482;54.332;10.118;2023-03-21T06:05:47;8.20;99.90
8892;DHT22;4482;54.332;10.118;2023-03-21T06:08:14;8.20;99.90
8892;DHT22;4482;54.332;10.118;2023-03-21T06:10:41;8.20;99.90
8892;DHT22;4482;54.332;10.118;2023-03-21T06:13:07;8.30;99.90
8892;DHT22;4482;54.332;10.118;2023-03-21T06:15:34;8.20;99.90
8892;DHT22;4482;54.332;10.118;2023-03-21T06:18:02;8.30;99.90
8892;DHT22;4482;54.332;10.118;2023-03-21T06:20:29;8.30;99.90
8892;DHT22;4482;54.332;10.118;2023-03-21T06:22:55;8.30;99.90
8892;DHT22;4482;54.332;10.118;2023-03-21T06:25:22;8.30;99.90
8892;DHT22;4482;54.332;10.118;2023-03-21T06:27:49;8.40;99.90
8892;DHT22;4482;54.332;10.118;2023-03-21T06:30:15;8.40;99.90
8892;DHT22;4482;54.332;10.118;2023-03-21T06:32:42;8.40;99.90
8892;DHT22;4482;54.332;10.118;2023-03-21T06:35:10;8.40;99.90
8892;DHT22;4482;54.332;10.118;2023-03-21T06:37:37;8.50;99.90
8892;DHT22;4482;54.332;10.118;2023-03-21T06:40:04;8.50;99.90
8892;DHT22;4482;54.332;10.118;2023-03-21T06:42:31;8.50;99.90
8892;DHT22;4482;54.332;10.118;2023-03-21T06:44:58;8.60;99.90
8892;DHT22;4482;54.332;10.118;2023-03-21T06:47:24;8.60;99.90
8892;DHT22;4482;54.332;10.118;2023-03-21T06:49:51;8.60;99.90
8892;DHT22;4482;54.332;10.118;2023-03-21T06:52:19;8.60;99.90
8892;DHT22;4482;54.332;10.118;2023-03-21T06:54:45;8.60;99.90
8892;DHT22;4482;54.332;10.118;2023-03-21T06:57:12;8.70;99.90
8892;DHT22;4482;54.332;10.118;2023-03-21T06:59:39;8.80;99.90
8892;DHT22;4482;54.332;10.118;2023-03-21T07:02:08;8.90;99.90
8892;DHT22;4482;54.332;10.118;2023-03-21T07:04:35;8.90;99.90
8892;DHT22;4482;54.332;10.118;2023-03-21T07:07:01;8.90;99.90
8892;DHT22;4482;54.332;10.118;2023-03-21T07:09:29;8.90;99.90
8892;DHT22;4482;54.332;10.118;2023-03-21T07:11:56;9.00;99.90
8892;DHT22;4482;54.332;10.118;2023-03-21T07:14:22;9.00;99.90
8892;DHT22;4482;54.332;10.118;2023-03-21T07:16:49;9.00;99.90
8892;DHT22;4482;54.332;10.118;2023-03-21T07:19:16;9.20;99.90
8892;DHT22;4482;54.332;10.118;2023-03-21T07:21:43;9.20;99.90
8892;DHT22;4482;54.332;10.118;2023-03-21T07:24:10;9.20;99.90
8892;DHT22;4482;54.332;10.118;2023-03-21T07:26:38;9.20;99.90
8892;DHT22;4482;54.332;10.118;2023-03-21T07:29:04;9.30;99.90
8892;DHT22;4482;54.332;10.118;2023-03-21T07:31:31;9.40;99.90
8892;DHT22;4482;54.332;10.118;2023-03-21T07:33:57;9.60;99.90
8892;DHT22;4482;54.332;10.118;2023-03-21T07:36:24;9.70;99.90
8892;DHT22;4482;54.332;10.118;2023-03-21T07:38:52;9.70;99.90
8892;DHT22;4482;54.332;10.118;2023-03-21T07:41:19;9.70;99.90
8892;DHT22;4482;54.332;10.118;2023-03-21T07:43:47;9.70;99.90
8892;DHT22;4482;54.332;10.118;2023-03-21T07:46:13;9.70;99.90
8892;DHT22;4482;54.332;10.118;2023-03-21T07:48:40;9.60;99.90
8892;DHT22;4482;54.332;10.118;2023-03-21T07:51:06;9.60;99.90
8892;DHT22;4482;54.332;10.118;2023-03-21T07:53:33;9.70;99.90
8892;DHT22;4482;54.332;10.118;2023-03-21T07:56:00;9.70;99.90
8892;DHT22;4482;54.332;10.118;2023-03-21T07:58:27;9.70;99.90
8892;DHT22;4482;54.332;10.118;2023-03-21T08:00:55;9.70;99.90
8892;DHT22;4482;54.332;10.118;2023-03-21T08:03:21;9.70;99.90
8892;DHT22;4482;54.332;10.118;2023-03-21T08:05:50;9.70;99.90
8892;DHT22;4482;54.332;10.118;2023-03-21T08:08:17;9.70;99.90
8892;DHT22;4482;54.332;10.118;2023-03-21T08:10:44;9.70;99.90
8892;DHT22;4482;54.332;10.118;2023-03-21T08:13:10;9.70;99.90
8892;DHT22;4482;54.332;10.118;2023-03-21T08:15:37;9.60;99.90
8892;DHT22;4482;54.332;10.118;2023-03-21T08:18:07;9.60;99.90
8892;DHT22;4482;54.332;10.118;2023-03-21T08:20:34;9.60;99.90
8892;DHT22;4482;54.332;10.118;2023-03-21T08:23:01;9.60;99.90
8892;DHT22;4482;54.332;10.118;2023-03-21T08:25:28;9.60;99.90
8892;DHT22;4482;54.332;10.118;2023-03-21T08:27:55;9.60;99.90
8892;DHT22;4482;54.332;10.118;2023-03-21T08:30:22;9.60;99.90
8892;DHT22;4482;54.332;10.118;2023-03-21T08:32:50;9.70;99.90
8892;DHT22;4482;54.332;10.118;2023-03-21T08:35:18;9.70;99.90
8892;DHT22;4482;54.332;10.118;2023-03-21T08:37:45;9.70;99.90
8892;DHT22;4482;54.332;10.118;2023-03-21T08:40:12;9.60;99.90
8892;DHT22;4482;54.332;10.118;2023-03-21T08:42:40;9.60;99.90
8892;DHT22;4482;54.332;10.118;2023-03-21T08:45:07;9.70;99.90
8892;DHT22;4482;54.332;10.118;2023-03-21T08:47:34;9.60;99.90
8892;DHT22;4482;54.332;10.118;2023-03-21T08:50:00;9.60;99.90
8892;DHT22;4482;54.332;10.118;2023-03-21T08:52:29;9.60;99.90
8892;DHT22;4482;54.332;10.118;2023-03-21T08:54:56;9.50;99.90
8892;DHT22;4482;54.332;10.118;2023-03-21T08:57:22;9.60;99.90
8892;DHT22;4482;54.332;10.118;2023-03-21T08:59:49;9.50;99.90
8892;DHT22;4482;54.332;10.118;2023-03-21T09:02:16;9.50;99.90
8892;DHT22;4482;54.332;10.118;2023-03-21T09:04:43;9.50;99.90
8892;DHT22;4482;54.332;10.118;2023-03-21T09:07:10;9.50;99.90
8892;DHT22;4482;54.332;10.118;2023-03-21T09:09:40;9.50;99.90
8892;DHT22;4482;54.332;10.118;2023-03-21T09:12:07;9.50;99.90
8892;DHT22;4482;54.332;10.118;2023-03-21T09:14:34;9.60;99.90
8892;DHT22;4482;54.332;10.118;2023-03-21T09:17:00;9.60;99.90
8892;DHT22;4482;54.332;10.118;2023-03-21T09:19:27;9.60;99.90
8892;DHT22;4482;54.332;10.118;2023-03-21T09:21:54;9.60;99.90
8892;DHT22;4482;54.332;10.118;2023-03-21T09:24:22;9.60;99.90
8892;DHT22;4482;54.332;10.118;2023-03-21T09:26:50;9.60;99.90
8892;DHT22;4482;54.332;10.118;2023-03-21T09:29:17;9.70;99.90
8892;DHT22;4482;54.332;10.118;2023-03-21T09:31:45;9.80;99.90
8892;DHT22;4482;54.332;10.118;2023-03-21T09:34:12;9.80;99.90
8892;DHT22;4482;54.332;10.118;2023-03-21T09:36:40;9.90;99.90
8892;DHT22;4482;54.332;10.118;2023-03-21T09:39:08;10.00;99.90
8892;DHT22;4482;54.332;10.118;2023-03-21T09:41:48;10.00;99.90
8892;DHT22;4482;54.332;10.118;2023-03-21T09:44:24;10.10;99.90
8892;DHT22;4482;54.332;10.118;2023-03-21T09:46:54;10.10;99.90
8892;DHT22;4482;54.332;10.118;2023-03-21T09:49:24;10.20;99.90
8892;DHT22;4482;54.332;10.118;2023-03-21T09:51:56;10.10;99.90
8892;DHT22;4482;54.332;10.118;2023-03-21T09:54:24;10.20;99.90
8892;DHT22;4482;54.332;10.118;2023-03-21T09:56:52;10.20;99.90
8892;DHT22;4482;54.332;10.118;2023-03-21T09:59:21;10.20;99.90
8892;DHT22;4482;54.332;10.118;2023-03-21T10:01:51;10.30;99.90
8892;DHT22;4482;54.332;10.118;2023-03-21T10:04:19;10.20;99.90
8892;DHT22;4482;54.332;10.118;2023-03-21T10:06:52;10.20;99.90
8892;DHT22;4482;54.332;10.118;2023-03-21T10:09:20;10.20;99.90
8892;DHT22;4482;54.332;10.118;2023-03-21T10:11:49;10.30;99.90
8892;DHT22;4482;54.332;10.118;2023-03-21T10:14:18;10.30;99.90
8892;DHT22;4482;54.332;10.118;2023-03-21T10:16:48;10.30;99.90
8892;DHT22;4482;54.332;10.118;2023-03-21T10:19:17;10.20;99.90
8892;DHT22;4482;54.332;10.118;2023-03-21T10:21:44;10.20;99.90
8892;DHT22;4482;54.332;10.118;2023-03-21T10:24:12;10.20;99.90
8892;DHT22;4482;54.332;10.118;2023-03-21T10:26:40;10.20;99.90
8892;DHT22;4482;54.332;10.118;2023-03-21T10:29:09;10.20;99.90
8892;DHT22;4482;54.332;10.118;2023-03-21T10:31:35;10.30;99.90
8892;DHT22;4482;54.332;10.118;2023-03-21T10:34:03;10.30;99.90
8892;DHT22;4482;54.332;10.118;2023-03-21T10:36:33;10.30;99.90
8892;DHT22;4482;54.332;10.118;2023-03-21T10:39:01;10.30;99.90
8892;DHT22;4482;54.332;10.118;2023-03-21T10:41:29;10.40;99.90
8892;DHT22;4482;54.332;10.118;2023-03-21T10:44:06;10.40;99.90
8892;DHT22;4482;54.332;10.118;2023-03-21T10:46:33;10.40;99.90
8892;DHT22;4482;54.332;10.118;2023-03-21T10:49:00;10.50;99.90
8892;DHT22;4482;54.332;10.118;2023-03-21T10:51:27;10.50;99.90
8892;DHT22;4482;54.332;10.118;2023-03-21T10:53:58;10.50;99.90
8892;DHT22;4482;54.332;10.118;2023-03-21T10:56:25;10.50;99.90
8892;DHT22;4482;54.332;10.118;2023-03-21T10:58:53;10.50;99.90
8892;DHT22;4482;54.332;10.118;2023-03-21T11:01:24;10.50;99.90
8892;DHT22;4482;54.332;10.118;2023-03-21T11:03:55;10.60;99.90
8892;DHT22;4482;54.332;10.118;2023-03-21T11:06:26;10.60;99.90
8892;DHT22;4482;54.332;10.118;2023-03-21T11:08:54;10.60;99.90
8892;DHT22;4482;54.332;10.118;2023-03-21T11:11:25;10.60;99.90
8892;DHT22;4482;54.332;10.118;2023-03-21T11:13:56;10.50;99.90
8892;DHT22;4482;54.332;10.118;2023-03-21T11:16:24;10.50;99.90
8892;DHT22;4482;54.332;10.118;2023-03-21T11:18:55;10.50;99.90
8892;DHT22;4482;54.332;10.118;2023-03-21T11:21:22;10.50;99.90
8892;DHT22;4482;54.332;10.118;2023-03-21T11:23:52;10.50;99.90
8892;DHT22;4482;54.332;10.118;2023-03-21T11:26:21;10.40;99.90
8892;DHT22;4482;54.332;10.118;2023-03-21T11:28:52;10.50;99.90
8892;DHT22;4482;54.332;10.118;2023-03-21T11:31:20;10.50;99.90
8892;DHT22;4482;54.332;10.118;2023-03-21T11:33:50;10.60;99.90
8892;DHT22;4482;54.332;10.118;2023-03-21T11:36:24;10.60;99.90
8892;DHT22;4482;54.332;10.118;2023-03-21T11:38:53;10.60;99.90
8892;DHT22;4482;54.332;10.118;2023-03-21T11:41:21;10.60;99.90
8892;DHT22;4482;54.332;10.118;2023-03-21T11:43:50;10.60;99.90
8892;DHT22;4482;54.332;10.118;2023-03-21T11:46:21;10.70;99.90
8892;DHT22;4482;54.332;10.118;2023-03-21T11:48:48;10.70;99.90
8892;DHT22;4482;54.332;10.118;2023-03-21T11:51:19;10.80;99.90
8892;DHT22;4482;54.332;10.118;2023-03-21T11:53:48;10.70;99.90
8892;DHT22;4482;54.332;10.118;2023-03-21T11:56:21;10.80;99.90
8892;DHT22;4482;54.332;10.118;2023-03-21T11:58:55;10.70;99.90
8892;DHT22;4482;54.332;10.118;2023-03-21T12:01:28;10.90;99.90
8892;DHT22;4482;54.332;10.118;2023-03-21T12:04:06;10.90;99.90
8892;DHT22;4482;54.332;10.118;2023-03-21T12:06:40;10.90;99.90
8892;DHT22;4482;54.332;10.118;2023-03-21T12:09:11;11.00;99.90
8892;DHT22;4482;54.332;10.118;2023-03-21T12:11:44;10.90;99.90
8892;DHT22;4482;54.332;10.118;2023-03-21T12:14:15;11.00;99.90
8892;DHT22;4482;54.332;10.118;2023-03-21T12:16:51;11.00;99.90
8892;DHT22;4482;54.332;10.118;2023-03-21T12:19:32;11.00;99.90
8892;DHT22;4482;54.332;10.118;2023-03-21T12:22:04;10.90;99.90
8892;DHT22;4482;54.332;10.118;2023-03-21T12:24:35;10.90;99.90
8892;DHT22;4482;54.332;10.118;2023-03-21T12:27:03;10.80;99.90
8892;DHT22;4482;54.332;10.118;2023-03-21T12:29:33;10.80;99.90
8892;DHT22;4482;54.332;10.118;2023-03-21T12:37:30;10.80;99.90
8892;DHT22;4482;54.332;10.118;2023-03-21T12:40:01;10.80;99.90
8892;DHT22;4482;54.332;10.118;2023-03-21T12:42:38;10.90;99.90
8892;DHT22;4482;54.332;10.118;2023-03-21T12:45:08;10.90;99.90
8892;DHT22;4482;54.332;10.118;2023-03-21T12:47:37;10.90;99.90
8892;DHT22;4482;54.332;10.118;2023-03-21T12:50:08;10.90;99.90
8892;DHT22;4482;54.332;10.118;2023-03-21T12:52:41;10.90;99.90
8892;DHT22;4482;54.332;10.118;2023-03-21T12:55:12;10.90;99.90
8892;DHT22;4482;54.332;10.118;2023-03-21T12:57:40;11.00;99.90
8892;DHT22;4482;54.332;10.118;2023-03-21T13:00:09;10.90;99.90
8892;DHT22;4482;54.332;10.118;2023-03-21T13:02:39;10.90;99.90
8892;DHT22;4482;54.332;10.118;2023-03-21T13:05:09;10.90;99.90
8892;DHT22;4482;54.332;10.118;2023-03-21T13:07:43;10.90;99.90
8892;DHT22;4482;54.332;10.118;2023-03-21T13:10:13;10.90;99.90
8892;DHT22;4482;54.332;10.118;2023-03-21T13:12:42;10.90;99.90
8892;DHT22;4482;54.332;10.118;2023-03-21T13:15:17;10.80;99.90
8892;DHT22;4482;54.332;10.118;2023-03-21T13:17:47;10.70;99.90
8892;DHT22;4482;54.332;10.118;2023-03-21T13:20:18;10.70;99.90
8892;DHT22;4482;54.332;10.118;2023-03-21T13:22:48;10.60;99.90
8892;DHT22;4482;54.332;10.118;2023-03-21T13:25:16;10.60;99.90
8892;DHT22;4482;54.332;10.118;2023-03-21T13:27:46;10.60;99.90
8892;DHT22;4482;54.332;10.118;2023-03-21T13:32:43;10.60;99.90
8892;DHT22;4482;54.332;10.118;2023-03-21T13:35:12;10.50;99.90
8892;DHT22;4482;54.332;10.118;2023-03-21T13:37:41;10.50;99.90
8892;DHT22;4482;54.332;10.118;2023-03-21T13:40:18;10.50;99.90
8892;DHT22;4482;54.332;10.118;2023-03-21T13:42:49;10.50;99.90
8892;DHT22;4482;54.332;10.118;2023-03-21T13:45:22;10.50;99.90
8892;DHT22;4482;54.332;10.118;2023-03-21T13:47:52;10.60;99.90
8892;DHT22;4482;54.332;10.118;2023-03-21T13:50:27;10.60;99.90
8892;DHT22;4482;54.332;10.118;2023-03-21T13:53:10;10.60;99.90
8892;DHT22;4482;54.332;10.118;2023-03-21T13:55:45;10.70;99.90
8892;DHT22;4482;54.332;10.118;2023-03-21T13:58:21;10.70;99.90
8892;DHT22;4482;54.332;10.118;2023-03-21T14:01:00;10.70;99.90
8892;DHT22;4482;54.332;10.118;2023-03-21T14:03:29;10.70;99.90
8892;DHT22;4482;54.332;10.118;2023-03-21T14:05:58;10.80;99.90
8892;DHT22;4482;54.332;10.118;2023-03-21T14:08:24;10.70;99.90
8892;DHT22;4482;54.332;10.118;2023-03-21T14:10:54;10.70;99.90
8892;DHT22;4482;54.332;10.118;2023-03-21T14:13:22;10.70;99.90
8892;DHT22;4482;54.332;10.118;2023-03-21T14:15:51;10.70;99.90
8892;DHT22;4482;54.332;10.118;2023-03-21T14:18:18;10.70;99.90
8892;DHT22;4482;54.332;10.118;2023-03-21T14:20:50;10.70;99.90
8892;DHT22;4482;54.332;10.118;2023-03-21T14:23:17;10.70;99.90
8892;DHT22;4482;54.332;10.118;2023-03-21T14:25:44;10.70;99.90
8892;DHT22;4482;54.332;10.118;2023-03-21T14:28:16;10.80;99.90
8892;DHT22;4482;54.332;10.118;2023-03-21T14:30:43;10.70;99.90
8892;DHT22;4482;54.332;10.118;2023-03-21T14:33:12;10.80;99.90
8892;DHT22;4482;54.332;10.118;2023-03-21T14:35:41;10.70;99.90
8892;DHT22;4482;54.332;10.118;2023-03-21T14:38:16;10.80;99.90
8892;DHT22;4482;54.332;10.118;2023-03-21T14:40:45;10.80;99.90
8892;DHT22;4482;54.332;10.118;2023-03-21T14:43:12;10.90;99.90
8892;DHT22;4482;54.332;10.118;2023-03-21T14:45:40;10.80;99.90
8892;DHT22;4482;54.332;10.118;2023-03-21T14:48:09;10.90;99.90
8892;DHT22;4482;54.332;10.118;2023-03-21T14:50:38;10.90;99.90
8892;DHT22;4482;54.332;10.118;2023-03-21T14:53:06;10.80;99.90
8892;DHT22;4482;54.332;10.118;2023-03-21T14:55:33;10.80;99.90
8892;DHT22;4482;54.332;10.118;2023-03-21T14:58:09;10.80;99.90
8892;DHT22;4482;54.332;10.118;2023-03-21T15:00:35;10.80;99.90
8892;DHT22;4482;54.332;10.118;2023-03-21T15:03:04;10.80;99.90
8892;DHT22;4482;54.332;10.118;2023-03-21T15:05:31;10.70;99.90
8892;DHT22;4482;54.332;10.118;2023-03-21T15:07:59;10.60;99.90
8892;DHT22;4482;54.332;10.118;2023-03-21T15:10:26;10.60;99.90
8892;DHT22;4482;54.332;10.118;2023-03-21T15:12:55;10.60;99.90
8892;DHT22;4482;54.332;10.118;2023-03-21T15:15:22;10.60;99.90
8892;DHT22;4482;54.332;10.118;2023-03-21T15:17:49;10.60;99.90
8892;DHT22;4482;54.332;10.118;2023-03-21T15:20:19;10.60;99.90
8892;DHT22;4482;54.332;10.118;2023-03-21T15:22:47;10.50;99.90
8892;DHT22;4482;54.332;10.118;2023-03-21T15:25:16;10.60;99.90
8892;DHT22;4482;54.332;10.118;2023-03-21T15:27:43;10.60;99.90
8892;DHT22;4482;54.332;10.118;2023-03-21T15:30:17;10.50;99.90
8892;DHT22;4482;54.332;10.118;2023-03-21T15:32:44;10.50;99.90
8892;DHT22;4482;54.332;10.118;2023-03-21T15:35:12;10.50;99.90
8892;DHT22;4482;54.332;10.118;2023-03-21T15:37:41;10.50;99.90
8892;DHT22;4482;54.332;10.118;2023-03-21T15:40:09;10.50;99.90
8892;DHT22;4482;54.332;10.118;2023-03-21T15:42:41;10.50;99.90
8892;DHT22;4482;54.332;10.118;2023-03-21T15:45:13;10.40;99.90
8892;DHT22;4482;54.332;10.118;2023-03-21T15:47:41;10.30;99.90
8892;DHT22;4482;54.332;10.118;2023-03-21T15:50:09;10.30;99.90
8892;DHT22;4482;54.332;10.118;2023-03-21T15:52:36;10.30;99.90
8892;DHT22;4482;54.332;10.118;2023-03-21T15:55:15;10.30;99.90
8892;DHT22;4482;54.332;10.118;2023-03-21T15:57:42;10.30;99.90
8892;DHT22;4482;54.332;10.118;2023-03-21T16:00:19;10.30;99.90
8892;DHT22;4482;54.332;10.118;2023-03-21T16:02:51;10.20;99.90
8892;DHT22;4482;54.332;10.118;2023-03-21T16:05:23;10.30;99.90
8892;DHT22;4482;54.332;10.118;2023-03-21T16:07:52;10.30;99.90
8892;DHT22;4482;54.332;10.118;2023-03-21T16:10:25;10.20;99.90
8892;DHT22;4482;54.332;10.118;2023-03-21T16:12:53;10.20;99.90
8892;DHT22;4482;54.332;10.118;2023-03-21T16:15:19;10.20;99.90